sensor_id;sensor_type;location;lat;lon;timestamp;temperature;humidity
2523;DHT22;1272;53.332;9.860;2022-07-29T00:02:12;13.40;99.90
2523;DHT22;1272;53.332;9.860;2022-07-29T00:04:38;13.40;99.90
2523;DHT22;1272;53.332;9.860;2022-07-29T00:07:04;13.40;99.90
2523;DHT22;1272;53.332;9.860;2022-07-29T00:09:30;13.40;99.90
2523;DHT22;1272;53.332;9.860;2022-07-29T00:11:59;13.40;99.90
2523;DHT22;1272;53.332;9.860;2022-07-29T00:14:25;13.50;99.90
2523;DHT22;1272;53.332;9.860;2022-07-29T00:16:51;13.50;99.90
2523;DHT22;1272;53.332;9.860;2022-07-29T00:19:17;13.40;99.90
2523;DHT22;1272;53.332;9.860;2022-07-29T00:21:42;13.40;99.90
2523;DHT22;1272;53.332;9.860;2022-07-29T00:24:08;13.40;99.90
2523;DHT22;1272;53.332;9.860;2022-07-29T00:26:34;13.40;99.90
2523;DHT22;1272;53.332;9.860;2022-07-29T00:29:01;13.30;86.00
2523;DHT22;1272;53.332;9.860;2022-07-29T00:31:27;13.30;99.90
2523;DHT22;1272;53.332;9.860;2022-07-29T00:33:53;13.20;99.90
2523;DHT22;1272;53.332;9.860;2022-07-29T00:36:19;13.20;99.90
2523;DHT22;1272;53.332;9.860;2022-07-29T00:38:50;13.10;99.90
2523;DHT22;1272;53.332;9.860;2022-07-29T00:41:16;13.10;99.90
2523;DHT22;1272;53.332;9.860;2022-07-29T00:43:42;13.10;99.90
2523;DHT22;1272;53.332;9.860;2022-07-29T00:46:08;13.10;99.90
2523;DHT22;1272;53.332;9.860;2022-07-29T00:48:34;13.10;99.90
2523;DHT22;1272;53.332;9.860;2022-07-29T00:51:02;13.10;99.90
2523;DHT22;1272;53.332;9.860;2022-07-29T00:53:28;13.20;57.00
2523;DHT22;1272;53.332;9.860;2022-07-29T00:55:55;13.20;99.90
2523;DHT22;1272;53.332;9.860;2022-07-29T00:58:22;13.20;77.20
2523;DHT22;1272;53.332;9.860;2022-07-29T01:00:49;13.20;86.60
2523;DHT22;1272;53.332;9.860;2022-07-29T01:03:14;13.10;99.90
2523;DHT22;1272;53.332;9.860;2022-07-29T01:05:41;13.10;34.20
2523;DHT22;1272;53.332;9.860;2022-07-29T01:08:08;13.10;49.10
2523;DHT22;1272;53.332;9.860;2022-07-29T01:10:36;13.10;52.20
2523;DHT22;1272;53.332;9.860;2022-07-29T01:13:03;13.20;70.50
2523;DHT22;1272;53.332;9.860;2022-07-29T01:15:29;13.20;4.10
2523;DHT22;1272;53.332;9.860;2022-07-29T01:23:11;13.30;9.50
2523;DHT22;1272;53.332;9.860;2022-07-29T01:26:00;13.20;1.00
2523;DHT22;1272;53.332;9.860;2022-07-29T01:30:58;13.20;40.20
2523;DHT22;1272;53.332;9.860;2022-07-29T01:33:27;13.20;8.10
2523;DHT22;1272;53.332;9.860;2022-07-29T01:36:14;13.20;99.90
2523;DHT22;1272;53.332;9.860;2022-07-29T01:38:43;13.20;99.90
2523;DHT22;1272;53.332;9.860;2022-07-29T01:41:14;13.20;99.90
2523;DHT22;1272;53.332;9.860;2022-07-29T01:43:59;13.20;99.90
2523;DHT22;1272;53.332;9.860;2022-07-29T01:46:34;13.20;64.70
2523;DHT22;1272;53.332;9.860;2022-07-29T01:49:14;13.20;97.90
2523;DHT22;1272;53.332;9.860;2022-07-29T01:51:50;13.20;99.90
2523;DHT22;1272;53.332;9.860;2022-07-29T01:54:32;13.20;99.90
2523;DHT22;1272;53.332;9.860;2022-07-29T01:57:00;13.20;99.90
2523;DHT22;1272;53.332;9.860;2022-07-29T01:59:28;13.20;99.90
2523;DHT22;1272;53.332;9.860;2022-07-29T02:01:55;13.30;99.90
2523;DHT22;1272;53.332;9.860;2022-07-29T02:04:22;13.20;99.90
2523;DHT22;1272;53.332;9.860;2022-07-29T02:06:50;13.20;99.90
2523;DHT22;1272;53.332;9.860;2022-07-29T02:09:17;13.20;99.90
2523;DHT22;1272;53.332;9.860;2022-07-29T02:11:49;13.20;99.90
2523;DHT22;1272;53.332;9.860;2022-07-29T02:14:21;13.20;99.90
2523;DHT22;1272;53.332;9.860;2022-07-29T02:16:50;13.30;99.90
2523;DHT22;1272;53.332;9.860;2022-07-29T02:19:18;13.30;99.90
2523;DHT22;1272;53.332;9.860;2022-07-29T02:21:45;13.30;99.90
2523;DHT22;1272;53.332;9.860;2022-07-29T02:24:12;13.30;99.90
2523;DHT22;1272;53.332;9.860;2022-07-29T02:26:41;13.30;63.20
2523;DHT22;1272;53.332;9.860;2022-07-29T02:29:08;13.40;99.90
2523;DHT22;1272;53.332;9.860;2022-07-29T02:31:35;13.30;99.90
2523;DHT22;1272;53.332;9.860;2022-07-29T02:34:06;13.30;99.90
2523;DHT22;1272;53.332;9.860;2022-07-29T02:36:34;13.40;99.90
2523;DHT22;1272;53.332;9.860;2022-07-29T02:39:01;13.30;99.90
2523;DHT22;1272;53.332;9.860;2022-07-29T02:42:01;13.30;99.90
2523;DHT22;1272;53.332;9.860;2022-07-29T02:44:28;13.20;99.90
2523;DHT22;1272;53.332;9.860;2022-07-29T02:47:02;13.20;99.90
2523;DHT22;1272;53.332;9.860;2022-07-29T02:49:36;13.20;99.90
2523;DHT22;1272;53.332;9.860;2022-07-29T02:52:06;13.20;99.90
2523;DHT22;1272;53.332;9.860;2022-07-29T02:54:56;13.30;99.90
2523;DHT22;1272;53.332;9.860;2022-07-29T02:57:33;13.20;99.90
2523;DHT22;1272;53.332;9.860;2022-07-29T03:00:04;13.20;99.90
2523;DHT22;1272;53.332;9.860;2022-07-29T03:02:35;13.10;99.90
2523;DHT22;1272;53.332;9.860;2022-07-29T03:05:03;13.20;99.90
2523;DHT22;1272;53.332;9.860;2022-07-29T03:07:29;13.10;99.90
2523;DHT22;1272;53.332;9.860;2022-07-29T03:09:56;13.10;99.90
2523;DHT22;1272;53.332;9.860;2022-07-29T03:12:23;13.10;99.90
2523;DHT22;1272;53.332;9.860;2022-07-29T03:14:50;13.00;99.90
2523;DHT22;1272;53.332;9.860;2022-07-29T03:17:16;13.10;99.90
2523;DHT22;1272;53.332;9.860;2022-07-29T03:19:42;13.10;99.90
2523;DHT22;1272;53.332;9.860;2022-07-29T03:22:08;13.10;99.90
2523;DHT22;1272;53.332;9.860;2022-07-29T03:24:35;13.00;99.90
2523;DHT22;1272;53.332;9.860;2022-07-29T03:27:02;13.00;1.00
2523;DHT22;1272;53.332;9.860;2022-07-29T03:29:29;12.90;1.00
2523;DHT22;1272;53.332;9.860;2022-07-29T03:31:55;13.00;1.00
2523;DHT22;1272;53.332;9.860;2022-07-29T03:34:21;13.00;1.00
2523;DHT22;1272;53.332;9.860;2022-07-29T03:36:47;13.00;1.00
2523;DHT22;1272;53.332;9.860;2022-07-29T03:39:17;13.00;1.00
2523;DHT22;1272;53.332;9.860;2022-07-29T03:41:45;13.00;1.00
2523;DHT22;1272;53.332;9.860;2022-07-29T03:44:13;13.10;1.00
2523;DHT22;1272;53.332;9.860;2022-07-29T03:46:41;13.10;1.00
2523;DHT22;1272;53.332;9.860;2022-07-29T03:49:09;13.10;1.00
2523;DHT22;1272;53.332;9.860;2022-07-29T03:51:35;13.10;1.00
2523;DHT22;1272;53.332;9.860;2022-07-29T03:54:03;13.10;1.00
2523;DHT22;1272;53.332;9.860;2022-07-29T03:56:29;13.20;1.00
2523;DHT22;1272;53.332;9.860;2022-07-29T03:58:57;13.20;1.00
2523;DHT22;1272;53.332;9.860;2022-07-29T04:01:23;13.20;1.00
2523;DHT22;1272;53.332;9.860;2022-07-29T04:03:50;13.20;1.00
2523;DHT22;1272;53.332;9.860;2022-07-29T04:06:16;13.20;1.00
2523;DHT22;1272;53.332;9.860;2022-07-29T04:08:41;13.20;1.00
2523;DHT22;1272;53.332;9.860;2022-07-29T04:11:07;13.30;1.00
2523;DHT22;1272;53.332;9.860;2022-07-29T04:13:33;13.30;1.00
2523;DHT22;1272;53.332;9.860;2022-07-29T04:15:59;13.30;1.00
2523;DHT22;1272;53.332;9.860;2022-07-29T04:18:25;13.40;1.00
2523;DHT22;1272;53.332;9.860;2022-07-29T04:20:50;13.40;1.00
2523;DHT22;1272;53.332;9.860;2022-07-29T04:23:16;13.40;1.00
2523;DHT22;1272;53.332;9.860;2022-07-29T04:25:42;13.40;1.00
2523;DHT22;1272;53.332;9.860;2022-07-29T04:28:08;13.40;1.00
2523;DHT22;1272;53.332;9.860;2022-07-29T04:30:35;13.40;1.00
2523;DHT22;1272;53.332;9.860;2022-07-29T04:33:03;13.50;1.00
2523;DHT22;1272;53.332;9.860;2022-07-29T04:35:30;13.50;99.90
2523;DHT22;1272;53.332;9.860;2022-07-29T04:37:56;13.40;1.00
2523;DHT22;1272;53.332;9.860;2022-07-29T04:40:22;13.50;1.00
2523;DHT22;1272;53.332;9.860;2022-07-29T04:42:48;13.60;99.90
2523;DHT22;1272;53.332;9.860;2022-07-29T04:45:14;13.60;1.00
2523;DHT22;1272;53.332;9.860;2022-07-29T04:47:40;13.70;1.00
2523;DHT22;1272;53.332;9.860;2022-07-29T04:50:08;13.70;99.90
2523;DHT22;1272;53.332;9.860;2022-07-29T04:52:33;13.70;99.90
2523;DHT22;1272;53.332;9.860;2022-07-29T04:55:00;13.70;99.90
2523;DHT22;1272;53.332;9.860;2022-07-29T04:57:26;13.80;99.90
2523;DHT22;1272;53.332;9.860;2022-07-29T04:59:52;13.80;99.90
2523;DHT22;1272;53.332;9.860;2022-07-29T05:02:18;13.80;99.90
2523;DHT22;1272;53.332;9.860;2022-07-29T05:04:43;13.90;99.90
2523;DHT22;1272;53.332;9.860;2022-07-29T05:07:09;13.80;99.90
2523;DHT22;1272;53.332;9.860;2022-07-29T05:09:35;13.80;99.90
2523;DHT22;1272;53.332;9.860;2022-07-29T05:12:02;13.90;1.00
2523;DHT22;1272;53.332;9.860;2022-07-29T05:14:27;14.00;99.90
2523;DHT22;1272;53.332;9.860;2022-07-29T05:16:53;14.00;99.90
2523;DHT22;1272;53.332;9.860;2022-07-29T05:19:22;14.10;99.90
2523;DHT22;1272;53.332;9.860;2022-07-29T05:21:47;14.20;99.90
2523;DHT22;1272;53.332;9.860;2022-07-29T05:24:13;14.20;99.90
2523;DHT22;1272;53.332;9.860;2022-07-29T05:26:39;14.30;99.90
2523;DHT22;1272;53.332;9.860;2022-07-29T05:29:05;14.40;99.90
2523;DHT22;1272;53.332;9.860;2022-07-29T05:31:31;14.50;73.40
2523;DHT22;1272;53.332;9.860;2022-07-29T05:33:56;14.50;99.90
2523;DHT22;1272;53.332;9.860;2022-07-29T05:36:22;14.60;43.10
2523;DHT22;1272;53.332;9.860;2022-07-29T05:38:48;14.60;59.20
2523;DHT22;1272;53.332;9.860;2022-07-29T05:41:13;14.60;34.80
2523;DHT22;1272;53.332;9.860;2022-07-29T05:43:39;14.70;1.00
2523;DHT22;1272;53.332;9.860;2022-07-29T05:46:05;14.70;8.40
2523;DHT22;1272;53.332;9.860;2022-07-29T05:48:30;14.80;1.00
2523;DHT22;1272;53.332;9.860;2022-07-29T05:50:56;14.80;1.00
2523;DHT22;1272;53.332;9.860;2022-07-29T05:53:22;14.90;1.00
2523;DHT22;1272;53.332;9.860;2022-07-29T05:55:48;14.90;1.00
2523;DHT22;1272;53.332;9.860;2022-07-29T05:58:15;15.00;1.00
2523;DHT22;1272;53.332;9.860;2022-07-29T06:00:41;15.10;1.00
2523;DHT22;1272;53.332;9.860;2022-07-29T06:03:06;15.20;1.00
2523;DHT22;1272;53.332;9.860;2022-07-29T06:05:32;15.30;1.00
2523;DHT22;1272;53.332;9.860;2022-07-29T06:07:58;15.30;1.00
2523;DHT22;1272;53.332;9.860;2022-07-29T06:10:23;15.50;1.00
2523;DHT22;1272;53.332;9.860;2022-07-29T06:12:49;15.50;99.90
2523;DHT22;1272;53.332;9.860;2022-07-29T06:15:15;15.50;99.90
2523;DHT22;1272;53.332;9.860;2022-07-29T06:17:41;15.50;1.00
2523;DHT22;1272;53.332;9.860;2022-07-29T06:20:07;15.40;1.00
2523;DHT22;1272;53.332;9.860;2022-07-29T06:22:33;15.60;1.00
2523;DHT22;1272;53.332;9.860;2022-07-29T06:24:58;15.70;1.00
2523;DHT22;1272;53.332;9.860;2022-07-29T06:27:24;15.70;1.00
2523;DHT22;1272;53.332;9.860;2022-07-29T06:29:49;15.70;99.90
2523;DHT22;1272;53.332;9.860;2022-07-29T06:32:15;15.70;99.90
2523;DHT22;1272;53.332;9.860;2022-07-29T06:34:41;15.60;99.90
2523;DHT22;1272;53.332;9.860;2022-07-29T06:37:07;15.50;1.00
2523;DHT22;1272;53.332;9.860;2022-07-29T06:39:35;15.50;1.00
2523;DHT22;1272;53.332;9.860;2022-07-29T06:42:01;15.60;1.00
2523;DHT22;1272;53.332;9.860;2022-07-29T06:44:27;15.70;1.00
2523;DHT22;1272;53.332;9.860;2022-07-29T06:46:53;15.70;1.00
2523;DHT22;1272;53.332;9.860;2022-07-29T06:49:20;15.70;1.00
2523;DHT22;1272;53.332;9.860;2022-07-29T06:51:45;15.80;1.00
2523;DHT22;1272;53.332;9.860;2022-07-29T06:54:11;15.90;1.00
2523;DHT22;1272;53.332;9.860;2022-07-29T06:56:38;16.10;99.90
2523;DHT22;1272;53.332;9.860;2022-07-29T06:59:08;16.20;99.90
2523;DHT22;1272;53.332;9.860;2022-07-29T07:01:34;16.30;99.90
2523;DHT22;1272;53.332;9.860;2022-07-29T07:04:00;16.40;99.90
2523;DHT22;1272;53.332;9.860;2022-07-29T07:06:26;16.50;99.90
2523;DHT22;1272;53.332;9.860;2022-07-29T07:08:51;16.60;99.90
2523;DHT22;1272;53.332;9.860;2022-07-29T07:11:17;16.70;99.90
2523;DHT22;1272;53.332;9.860;2022-07-29T07:13:43;16.80;99.90
2523;DHT22;1272;53.332;9.860;2022-07-29T07:16:08;17.00;99.90
2523;DHT22;1272;53.332;9.860;2022-07-29T07:18:34;17.00;99.90
2523;DHT22;1272;53.332;9.860;2022-07-29T07:21:00;17.20;99.90
2523;DHT22;1272;53.332;9.860;2022-07-29T07:23:25;17.20;72.90
2523;DHT22;1272;53.332;9.860;2022-07-29T07:25:51;17.30;49.60
2523;DHT22;1272;53.332;9.860;2022-07-29T07:28:17;17.30;23.60
2523;DHT22;1272;53.332;9.860;2022-07-29T07:30:44;17.40;1.00
2523;DHT22;1272;53.332;9.860;2022-07-29T07:33:10;17.50;92.30
2523;DHT22;1272;53.332;9.860;2022-07-29T07:35:36;17.60;11.70
2523;DHT22;1272;53.332;9.860;2022-07-29T07:38:02;17.70;1.00
2523;DHT22;1272;53.332;9.860;2022-07-29T07:40:27;17.80;1.00
2523;DHT22;1272;53.332;9.860;2022-07-29T07:42:53;17.90;1.00
2523;DHT22;1272;53.332;9.860;2022-07-29T07:45:19;17.80;1.00
2523;DHT22;1272;53.332;9.860;2022-07-29T07:47:44;17.90;1.00
2523;DHT22;1272;53.332;9.860;2022-07-29T07:50:11;17.90;1.00
2523;DHT22;1272;53.332;9.860;2022-07-29T07:52:55;18.00;1.00
2523;DHT22;1272;53.332;9.860;2022-07-29T07:55:23;18.10;1.00
2523;DHT22;1272;53.332;9.860;2022-07-29T07:57:49;18.20;1.00
2523;DHT22;1272;53.332;9.860;2022-07-29T08:00:16;18.20;1.00
2523;DHT22;1272;53.332;9.860;2022-07-29T08:02:42;18.10;1.00
2523;DHT22;1272;53.332;9.860;2022-07-29T08:05:08;17.90;1.00
2523;DHT22;1272;53.332;9.860;2022-07-29T08:07:34;18.00;1.00
2523;DHT22;1272;53.332;9.860;2022-07-29T08:10:00;18.10;1.00
2523;DHT22;1272;53.332;9.860;2022-07-29T08:12:25;18.20;1.00
2523;DHT22;1272;53.332;9.860;2022-07-29T08:14:51;18.20;1.00
2523;DHT22;1272;53.332;9.860;2022-07-29T08:17:17;18.30;1.00
2523;DHT22;1272;53.332;9.860;2022-07-29T08:19:42;18.40;1.00
2523;DHT22;1272;53.332;9.860;2022-07-29T08:22:08;18.50;1.00
2523;DHT22;1272;53.332;9.860;2022-07-29T08:24:34;18.50;1.00
2523;DHT22;1272;53.332;9.860;2022-07-29T08:27:12;18.50;1.00
2523;DHT22;1272;53.332;9.860;2022-07-29T08:29:38;18.60;1.00
2523;DHT22;1272;53.332;9.860;2022-07-29T08:32:05;18.70;1.00
2523;DHT22;1272;53.332;9.860;2022-07-29T08:34:31;18.90;1.00
2523;DHT22;1272;53.332;9.860;2022-07-29T08:36:57;19.00;99.90
2523;DHT22;1272;53.332;9.860;2022-07-29T08:39:23;19.00;1.00
2523;DHT22;1272;53.332;9.860;2022-07-29T08:41:49;19.10;1.00
2523;DHT22;1272;53.332;9.860;2022-07-29T08:44:19;19.10;1.00
2523;DHT22;1272;53.332;9.860;2022-07-29T08:46:47;19.20;99.90
2523;DHT22;1272;53.332;9.860;2022-07-29T08:49:12;19.20;99.90
2523;DHT22;1272;53.332;9.860;2022-07-29T08:51:43;19.30;99.90
2523;DHT22;1272;53.332;9.860;2022-07-29T08:54:09;19.40;99.90
2523;DHT22;1272;53.332;9.860;2022-07-29T08:56:36;19.40;99.90
2523;DHT22;1272;53.332;9.860;2022-07-29T08:59:04;19.30;99.90
2523;DHT22;1272;53.332;9.860;2022-07-29T09:01:32;19.30;99.90
2523;DHT22;1272;53.332;9.860;2022-07-29T09:03:59;19.30;99.90
2523;DHT22;1272;53.332;9.860;2022-07-29T09:06:31;19.30;99.90
2523;DHT22;1272;53.332;9.860;2022-07-29T09:08:59;19.50;99.90
2523;DHT22;1272;53.332;9.860;2022-07-29T09:11:25;19.50;99.90
2523;DHT22;1272;53.332;9.860;2022-07-29T09:13:51;19.60;99.90
2523;DHT22;1272;53.332;9.860;2022-07-29T09:16:17;19.70;1.00
2523;DHT22;1272;53.332;9.860;2022-07-29T09:18:44;19.90;99.90
2523;DHT22;1272;53.332;9.860;2022-07-29T09:21:13;20.10;99.90
2523;DHT22;1272;53.332;9.860;2022-07-29T09:26:34;20.50;99.90
2523;DHT22;1272;53.332;9.860;2022-07-29T09:29:18;20.60;99.90
2523;DHT22;1272;53.332;9.860;2022-07-29T09:31:46;20.70;99.90
2523;DHT22;1272;53.332;9.860;2022-07-29T09:34:14;20.80;99.90
2523;DHT22;1272;53.332;9.860;2022-07-29T09:36:46;20.90;99.90
2523;DHT22;1272;53.332;9.860;2022-07-29T09:39:12;21.00;99.90
2523;DHT22;1272;53.332;9.860;2022-07-29T09:41:54;21.10;99.90
2523;DHT22;1272;53.332;9.860;2022-07-29T09:44:21;21.10;99.90
2523;DHT22;1272;53.332;9.860;2022-07-29T09:49:22;21.00;99.90
2523;DHT22;1272;53.332;9.860;2022-07-29T09:51:59;21.10;99.90
2523;DHT22;1272;53.332;9.860;2022-07-29T09:54:26;21.00;99.90
2523;DHT22;1272;53.332;9.860;2022-07-29T09:56:54;21.10;99.90
2523;DHT22;1272;53.332;9.860;2022-07-29T09:59:20;21.00;99.90
2523;DHT22;1272;53.332;9.860;2022-07-29T10:01:48;21.10;99.90
2523;DHT22;1272;53.332;9.860;2022-07-29T10:04:15;21.10;99.90
2523;DHT22;1272;53.332;9.860;2022-07-29T10:06:58;21.30;99.90
2523;DHT22;1272;53.332;9.860;2022-07-29T10:09:25;21.30;99.90
2523;DHT22;1272;53.332;9.860;2022-07-29T10:12:10;21.30;93.20
2523;DHT22;1272;53.332;9.860;2022-07-29T10:14:38;21.30;99.90
2523;DHT22;1272;53.332;9.860;2022-07-29T10:17:05;21.40;82.70
2523;DHT22;1272;53.332;9.860;2022-07-29T10:19:32;21.30;66.50
2523;DHT22;1272;53.332;9.860;2022-07-29T10:21:59;21.40;91.20
2523;DHT22;1272;53.332;9.860;2022-07-29T10:24:29;21.40;84.70
2523;DHT22;1272;53.332;9.860;2022-07-29T10:26:57;21.60;81.30
2523;DHT22;1272;53.332;9.860;2022-07-29T10:29:23;21.70;99.90
2523;DHT22;1272;53.332;9.860;2022-07-29T10:32:00;21.80;90.40
2523;DHT22;1272;53.332;9.860;2022-07-29T10:37:20;22.00;72.70
2523;DHT22;1272;53.332;9.860;2022-07-29T10:42:54;22.20;43.50
2523;DHT22;1272;53.332;9.860;2022-07-29T10:45:21;22.40;27.60
2523;DHT22;1272;53.332;9.860;2022-07-29T10:47:47;22.60;18.70
2523;DHT22;1272;53.332;9.860;2022-07-29T10:50:13;22.70;35.10
2523;DHT22;1272;53.332;9.860;2022-07-29T10:52:53;23.10;11.10
2523;DHT22;1272;53.332;9.860;2022-07-29T10:55:36;23.60;1.00
2523;DHT22;1272;53.332;9.860;2022-07-29T10:58:18;23.90;1.00
2523;DHT22;1272;53.332;9.860;2022-07-29T11:00:47;23.80;1.00
2523;DHT22;1272;53.332;9.860;2022-07-29T11:03:47;23.90;1.00
2523;DHT22;1272;53.332;9.860;2022-07-29T11:06:14;23.80;1.00
2523;DHT22;1272;53.332;9.860;2022-07-29T11:08:40;23.90;1.00
2523;DHT22;1272;53.332;9.860;2022-07-29T11:13:44;23.80;1.00
2523;DHT22;1272;53.332;9.860;2022-07-29T11:16:16;23.80;1.00
2523;DHT22;1272;53.332;9.860;2022-07-29T11:21:44;23.90;1.00
2523;DHT22;1272;53.332;9.860;2022-07-29T11:24:26;24.10;1.00
2523;DHT22;1272;53.332;9.860;2022-07-29T11:29:39;24.30;1.00
2523;DHT22;1272;53.332;9.860;2022-07-29T11:32:13;24.50;1.00
2523;DHT22;1272;53.332;9.860;2022-07-29T11:34:41;24.60;1.00
2523;DHT22;1272;53.332;9.860;2022-07-29T11:39:37;25.00;1.00
2523;DHT22;1272;53.332;9.860;2022-07-29T11:44:57;24.80;1.00
2523;DHT22;1272;53.332;9.860;2022-07-29T11:47:34;24.70;1.00
2523;DHT22;1272;53.332;9.860;2022-07-29T11:50:01;24.70;1.00
2523;DHT22;1272;53.332;9.860;2022-07-29T11:52:35;24.80;1.00
2523;DHT22;1272;53.332;9.860;2022-07-29T11:55:04;25.20;1.00
2523;DHT22;1272;53.332;9.860;2022-07-29T11:57:31;25.50;1.00
2523;DHT22;1272;53.332;9.860;2022-07-29T11:59:58;25.50;1.00
2523;DHT22;1272;53.332;9.860;2022-07-29T12:02:24;25.60;1.00
2523;DHT22;1272;53.332;9.860;2022-07-29T12:04:53;26.10;1.00
2523;DHT22;1272;53.332;9.860;2022-07-29T12:07:30;26.30;1.00
2523;DHT22;1272;53.332;9.860;2022-07-29T12:09:56;26.50;1.00
2523;DHT22;1272;53.332;9.860;2022-07-29T12:12:22;26.70;1.00
2523;DHT22;1272;53.332;9.860;2022-07-29T12:14:48;26.80;1.00
2523;DHT22;1272;53.332;9.860;2022-07-29T12:17:28;26.70;1.00
2523;DHT22;1272;53.332;9.860;2022-07-29T12:19:55;26.80;1.00
2523;DHT22;1272;53.332;9.860;2022-07-29T12:22:31;27.00;1.00
2523;DHT22;1272;53.332;9.860;2022-07-29T12:25:06;27.10;1.00
2523;DHT22;1272;53.332;9.860;2022-07-29T12:27:32;27.00;1.00
2523;DHT22;1272;53.332;9.860;2022-07-29T12:30:06;27.30;1.00
2523;DHT22;1272;53.332;9.860;2022-07-29T12:32:43;27.10;1.00
2523;DHT22;1272;53.332;9.860;2022-07-29T12:35:13;26.90;1.00
2523;DHT22;1272;53.332;9.860;2022-07-29T12:37:40;26.60;1.00
2523;DHT22;1272;53.332;9.860;2022-07-29T12:40:08;26.30;1.00
2523;DHT22;1272;53.332;9.860;2022-07-29T12:42:34;26.00;1.00
2523;DHT22;1272;53.332;9.860;2022-07-29T12:45:01;25.80;1.00
2523;DHT22;1272;53.332;9.860;2022-07-29T12:47:28;25.40;1.00
2523;DHT22;1272;53.332;9.860;2022-07-29T12:50:14;25.20;1.00
2523;DHT22;1272;53.332;9.860;2022-07-29T12:52:43;25.00;1.00
2523;DHT22;1272;53.332;9.860;2022-07-29T12:55:09;24.90;1.00
2523;DHT22;1272;53.332;9.860;2022-07-29T12:57:48;25.00;1.00
2523;DHT22;1272;53.332;9.860;2022-07-29T13:00:16;25.00;1.00
2523;DHT22;1272;53.332;9.860;2022-07-29T13:02:42;25.10;1.00
2523;DHT22;1272;53.332;9.860;2022-07-29T13:05:09;25.20;1.00
2523;DHT22;1272;53.332;9.860;2022-07-29T13:07:36;25.40;1.00
2523;DHT22;1272;53.332;9.860;2022-07-29T13:10:17;25.50;1.00
2523;DHT22;1272;53.332;9.860;2022-07-29T13:13:05;25.60;1.00
2523;DHT22;1272;53.332;9.860;2022-07-29T13:15:32;25.80;1.00
2523;DHT22;1272;53.332;9.860;2022-07-29T13:17:59;26.20;1.00
2523;DHT22;1272;53.332;9.860;2022-07-29T13:20:26;26.50;1.00
2523;DHT22;1272;53.332;9.860;2022-07-29T13:23:01;27.00;1.00
2523;DHT22;1272;53.332;9.860;2022-07-29T13:25:31;27.40;1.00
2523;DHT22;1272;53.332;9.860;2022-07-29T13:27:58;27.80;1.00
2523;DHT22;1272;53.332;9.860;2022-07-29T13:30:25;28.00;1.00
2523;DHT22;1272;53.332;9.860;2022-07-29T13:32:52;28.10;1.00
2523;DHT22;1272;53.332;9.860;2022-07-29T13:35:18;28.20;1.00
2523;DHT22;1272;53.332;9.860;2022-07-29T13:37:45;28.30;1.00
2523;DHT22;1272;53.332;9.860;2022-07-29T13:40:12;28.40;1.00
2523;DHT22;1272;53.332;9.860;2022-07-29T13:42:39;28.40;1.00
2523;DHT22;1272;53.332;9.860;2022-07-29T13:45:07;28.20;1.00
2523;DHT22;1272;53.332;9.860;2022-07-29T13:47:33;28.30;1.00
2523;DHT22;1272;53.332;9.860;2022-07-29T13:50:06;28.60;1.00
2523;DHT22;1272;53.332;9.860;2022-07-29T13:52:33;28.90;1.00
2523;DHT22;1272;53.332;9.860;2022-07-29T13:54:59;28.80;1.00
2523;DHT22;1272;53.332;9.860;2022-07-29T13:57:24;28.60;1.00
2523;DHT22;1272;53.332;9.860;2022-07-29T13:59:50;28.70;1.00
2523;DHT22;1272;53.332;9.860;2022-07-29T14:02:16;28.60;1.00
2523;DHT22;1272;53.332;9.860;2022-07-29T14:04:42;28.50;1.00
2523;DHT22;1272;53.332;9.860;2022-07-29T14:07:08;28.50;1.00
2523;DHT22;1272;53.332;9.860;2022-07-29T14:09:35;28.30;1.00
2523;DHT22;1272;53.332;9.860;2022-07-29T14:12:01;28.10;1.00
2523;DHT22;1272;53.332;9.860;2022-07-29T14:14:28;27.90;1.00
2523;DHT22;1272;53.332;9.860;2022-07-29T14:16:54;27.50;1.00
2523;DHT22;1272;53.332;9.860;2022-07-29T14:19:19;27.20;1.00
2523;DHT22;1272;53.332;9.860;2022-07-29T14:21:45;26.90;1.00
2523;DHT22;1272;53.332;9.860;2022-07-29T14:24:11;26.80;1.00
2523;DHT22;1272;53.332;9.860;2022-07-29T14:26:37;26.80;1.00
2523;DHT22;1272;53.332;9.860;2022-07-29T14:29:02;26.90;1.00
2523;DHT22;1272;53.332;9.860;2022-07-29T14:31:28;26.90;1.00
2523;DHT22;1272;53.332;9.860;2022-07-29T14:33:54;26.90;1.00
2523;DHT22;1272;53.332;9.860;2022-07-29T14:36:19;26.90;1.00
2523;DHT22;1272;53.332;9.860;2022-07-29T14:38:45;26.60;1.00
2523;DHT22;1272;53.332;9.860;2022-07-29T14:41:12;26.60;1.00
2523;DHT22;1272;53.332;9.860;2022-07-29T14:43:37;26.50;1.00
2523;DHT22;1272;53.332;9.860;2022-07-29T14:46:03;26.50;1.00
2523;DHT22;1272;53.332;9.860;2022-07-29T14:48:29;26.90;1.00
2523;DHT22;1272;53.332;9.860;2022-07-29T14:50:55;27.10;1.00
2523;DHT22;1272;53.332;9.860;2022-07-29T14:53:21;27.30;1.00
2523;DHT22;1272;53.332;9.860;2022-07-29T14:55:47;27.50;1.00
2523;DHT22;1272;53.332;9.860;2022-07-29T14:58:13;27.80;1.00
2523;DHT22;1272;53.332;9.860;2022-07-29T15:00:39;28.00;1.00
2523;DHT22;1272;53.332;9.860;2022-07-29T15:03:05;28.20;1.00
2523;DHT22;1272;53.332;9.860;2022-07-29T15:05:34;28.50;1.00
2523;DHT22;1272;53.332;9.860;2022-07-29T15:08:00;28.70;1.00
2523;DHT22;1272;53.332;9.860;2022-07-29T15:10:26;29.00;1.00
2523;DHT22;1272;53.332;9.860;2022-07-29T15:12:53;29.20;1.00
2523;DHT22;1272;53.332;9.860;2022-07-29T15:15:18;29.30;1.00
2523;DHT22;1272;53.332;9.860;2022-07-29T15:17:44;29.20;99.90
2523;DHT22;1272;53.332;9.860;2022-07-29T15:20:11;29.20;99.90
2523;DHT22;1272;53.332;9.860;2022-07-29T15:22:37;29.20;99.90
2523;DHT22;1272;53.332;9.860;2022-07-29T15:25:04;29.10;99.90
2523;DHT22;1272;53.332;9.860;2022-07-29T15:27:30;29.30;99.90
2523;DHT22;1272;53.332;9.860;2022-07-29T15:29:56;29.30;99.90
2523;DHT22;1272;53.332;9.860;2022-07-29T15:32:22;29.30;99.90
2523;DHT22;1272;53.332;9.860;2022-07-29T15:34:47;29.20;99.90
2523;DHT22;1272;53.332;9.860;2022-07-29T15:37:13;29.20;1.00
2523;DHT22;1272;53.332;9.860;2022-07-29T15:39:39;29.20;99.90
2523;DHT22;1272;53.332;9.860;2022-07-29T15:42:04;29.30;1.00
2523;DHT22;1272;53.332;9.860;2022-07-29T15:44:30;29.00;1.00
2523;DHT22;1272;53.332;9.860;2022-07-29T15:46:56;28.90;1.00
2523;DHT22;1272;53.332;9.860;2022-07-29T15:49:35;28.60;1.00
2523;DHT22;1272;53.332;9.860;2022-07-29T15:52:06;28.70;1.00
2523;DHT22;1272;53.332;9.860;2022-07-29T15:54:33;28.70;1.00
2523;DHT22;1272;53.332;9.860;2022-07-29T15:56:59;28.70;1.00
2523;DHT22;1272;53.332;9.860;2022-07-29T15:59:25;28.40;1.00
2523;DHT22;1272;53.332;9.860;2022-07-29T16:01:51;27.90;1.00
2523;DHT22;1272;53.332;9.860;2022-07-29T16:04:17;27.50;1.00
2523;DHT22;1272;53.332;9.860;2022-07-29T16:06:43;27.10;1.00
2523;DHT22;1272;53.332;9.860;2022-07-29T16:09:09;27.00;1.00
2523;DHT22;1272;53.332;9.860;2022-07-29T16:11:35;26.70;1.00
2523;DHT22;1272;53.332;9.860;2022-07-29T16:14:01;26.60;1.00
2523;DHT22;1272;53.332;9.860;2022-07-29T16:16:27;26.40;1.00
2523;DHT22;1272;53.332;9.860;2022-07-29T16:18:53;26.20;1.00
2523;DHT22;1272;53.332;9.860;2022-07-29T16:21:18;26.00;1.00
2523;DHT22;1272;53.332;9.860;2022-07-29T16:23:44;25.90;1.00
2523;DHT22;1272;53.332;9.860;2022-07-29T16:26:10;25.80;1.00
2523;DHT22;1272;53.332;9.860;2022-07-29T16:28:36;25.80;1.00
2523;DHT22;1272;53.332;9.860;2022-07-29T16:31:02;25.80;1.00
2523;DHT22;1272;53.332;9.860;2022-07-29T16:33:28;25.60;1.00
2523;DHT22;1272;53.332;9.860;2022-07-29T16:35:54;25.30;1.00
2523;DHT22;1272;53.332;9.860;2022-07-29T16:38:19;25.10;1.00
2523;DHT22;1272;53.332;9.860;2022-07-29T16:40:45;25.00;1.00
2523;DHT22;1272;53.332;9.860;2022-07-29T16:43:11;24.90;1.00
2523;DHT22;1272;53.332;9.860;2022-07-29T16:45:37;25.00;1.00
2523;DHT22;1272;53.332;9.860;2022-07-29T16:48:03;24.80;1.00